Observation data for Levelland on 12/13/2019      Previous  Date       Current Mesonet Observations  Soil Data  Daily Summary Page  Observations in Plain Language
KLD1 130600Z 26009KT 03/M03 A2999 RMK A01 T00281029  RH  066%=      5-min Rain = 0
KLD1 130605Z 26009KT 03/M03 A2999 RMK A01 T00311027  RH  066%=      5-min Rain = 0
KLD1 130610Z 26007KT 03/M03 A2998 RMK A01 T00301027  RH  066%=      5-min Rain = 0
KLD1 130615Z 27007KT 03/M03 A2998 RMK A01 T00291027  RH  067%=      5-min Rain = 0
KLD1 130620Z 27007KT 03/M03 A2998 RMK A01 T00301025  RH  068%=      5-min Rain = 0
KLD1 130625Z 27008KT 04/M02 A2997 RMK A01 T00351022  RH  067%=      5-min Rain = 0
KLD1 130630Z 27008KT 04/M02 A2998 RMK A01 T00371021  RH  066%=      5-min Rain = 0
KLD1 130635Z 27008KT 04/M02 A2997 RMK A01 T00381020  RH  066%=      5-min Rain = 0
KLD1 130640Z 27008KT 04/M02 A2998 RMK A01 T00381020  RH  066%=      5-min Rain = 0
KLD1 130645Z 27008KT 04/M02 A2998 RMK A01 T00381019  RH  067%=      5-min Rain = 0
KLD1 130650Z 27008KT 04/M02 A2998 RMK A01 T00371019  RH  067%=      5-min Rain = 0
KLD1 130655Z 26008KT 04/M02 A2997 RMK A01 T00371018  RH  068%=      5-min Rain = 0
KLD1 130700Z 26008KT 04/M02 A2997 RMK A01 T00361019  RH  068%=      5-min Rain = 0
KLD1 130705Z 27009KT 04/M02 A2997 RMK A01 T00351019  RH  069%=      5-min Rain = 0
KLD1 130710Z 27010KT 04/M02 A2997 RMK A01 T00391017  RH  067%=      5-min Rain = 0
KLD1 130715Z 27011KT 05/M02 A2997 RMK A01 T00461017  RH  064%=      5-min Rain = 0
KLD1 130720Z 28010KT 05/M02 A2997 RMK A01 T00531017  RH  061%=      5-min Rain = 0
KLD1 130725Z 28009KT 06/M02 A2997 RMK A01 T00571018  RH  059%=      5-min Rain = 0
KLD1 130730Z 28009KT 06/M02 A2997 RMK A01 T00561020  RH  059%=      5-min Rain = 0
KLD1 130735Z 28008KT 05/M02 A2997 RMK A01 T00541021  RH  059%=      5-min Rain = 0
KLD1 130740Z 27007KT 05/M02 A2997 RMK A01 T00511022  RH  060%=      5-min Rain = 0
KLD1 130745Z 28008KT 05/M02 A2997 RMK A01 T00491022  RH  061%=      5-min Rain = 0
KLD1 130750Z 28008KT 05/M02 A2997 RMK A01 T00471023  RH  061%=      5-min Rain = 0
KLD1 130755Z 28009KT 05/M02 A2996 RMK A01 T00481022  RH  061%=      5-min Rain = 0
KLD1 130800Z 28010KT 05/M02 A2996 RMK A01 T00511023  RH  060%=      5-min Rain = 0
KLD1 130805Z 28010KT 05/M02 A2995 RMK A01 T00511023  RH  059%=      5-min Rain = 0
KLD1 130810Z 28010KT 05/M02 A2995 RMK A01 T00491024  RH  060%=      5-min Rain = 0
KLD1 130815Z 29009KT 05/M02 A2996 RMK A01 T00471024  RH  060%=      5-min Rain = 0
KLD1 130820Z 29010KT 04/M03 A2996 RMK A01 T00441025  RH  062%=      5-min Rain = 0
KLD1 130825Z 28011KT 05/M02 A2996 RMK A01 T00451024  RH  061%=      5-min Rain = 0
KLD1 130830Z 28011KT 05/M02 A2996 RMK A01 T00501024  RH  059%=      5-min Rain = 0
KLD1 130835Z 28012KT 05/M03 A2996 RMK A01 T00531025  RH  058%=      5-min Rain = 0
KLD1 130840Z 28013KT 05/M03 A2997 RMK A01 T00531025  RH  057%=      5-min Rain = 0
KLD1 130845Z 28012KT 05/M03 A2997 RMK A01 T00511025  RH  058%=      5-min Rain = 0
KLD1 130850Z 28011KT 05/M03 A2997 RMK A01 T00491026  RH  059%=      5-min Rain = 0
KLD1 130855Z 28011KT 05/M03 A2997 RMK A01 T00491026  RH  059%=      5-min Rain = 0
KLD1 130900Z 28011KT 05/M03 A2997 RMK A01 T00471026  RH  060%=      5-min Rain = 0
KLD1 130905Z 28010KT 05/M03 A2997 RMK A01 T00451026  RH  061%=      5-min Rain = 0
KLD1 130910Z 28010KT 04/M03 A2997 RMK A01 T00431026  RH  061%=      5-min Rain = 0
KLD1 130915Z 28010KT 04/M03 A2997 RMK A01 T00441026  RH  061%=      5-min Rain = 0
KLD1 130920Z 29011KT 04/M03 A2997 RMK A01 T00441026  RH  061%=      5-min Rain = 0
KLD1 130925Z 29010KT 04/M03 A2997 RMK A01 T00411027  RH  062%=      5-min Rain = 0
KLD1 130930Z 29010KT 05/M03 A2996 RMK A01 T00461027  RH  060%=      5-min Rain = 0
KLD1 130935Z 30011KT 05/M03 A2996 RMK A01 T00531027  RH  057%=      5-min Rain = 0
KLD1 130940Z 29009KT 05/M03 A2996 RMK A01 T00511028  RH  057%=      5-min Rain = 0
KLD1 130945Z 29008KT 05/M03 A2996 RMK A01 T00451030  RH  059%=      5-min Rain = 0
KLD1 130950Z 29008KT 04/M03 A2996 RMK A01 T00401030  RH  061%=      5-min Rain = 0
KLD1 130955Z 29008KT 04/M03 A2996 RMK A01 T00361030  RH  062%=      5-min Rain = 0
KLD1 131000Z 29008KT 03/M03 A2997 RMK A01 T00331030  RH  064%=      5-min Rain = 0
KLD1 131005Z 29008KT 03/M03 A2997 RMK A01 T00281031  RH  065%=      5-min Rain = 0
KLD1 131010Z 28008KT 03/M03 A2997 RMK A01 T00261030  RH  067%=      5-min Rain = 0
KLD1 131015Z 28009KT 03/M03 A2996 RMK A01 T00251031  RH  067%=      5-min Rain = 0
KLD1 131020Z 28009KT 03/M03 A2996 RMK A01 T00261030  RH  067%=      5-min Rain = 0
KLD1 131025Z 28010KT 03/M03 A2996 RMK A01 T00281029  RH  066%=      5-min Rain = 0
KLD1 131030Z 29010KT 03/M03 A2996 RMK A01 T00301029  RH  065%=      5-min Rain = 0
KLD1 131035Z 29009KT 03/M03 A2995 RMK A01 T00291030  RH  065%=      5-min Rain = 0
KLD1 131040Z 28009KT 03/M03 A2995 RMK A01 T00291030  RH  066%=      5-min Rain = 0
KLD1 131045Z 28010KT 03/M03 A2995 RMK A01 T00301029  RH  066%=      5-min Rain = 0
KLD1 131050Z 28010KT 03/M03 A2995 RMK A01 T00341028  RH  064%=      5-min Rain = 0
KLD1 131055Z 28009KT 04/M03 A2995 RMK A01 T00351028  RH  064%=      5-min Rain = 0
KLD1 131100Z 28010KT 04/M03 A2995 RMK A01 T00361028  RH  063%=      5-min Rain = 0
KLD1 131105Z 28009KT 04/M03 A2996 RMK A01 T00361028  RH  063%=      5-min Rain = 0
KLD1 131110Z 28010KT 04/M03 A2996 RMK A01 T00361027  RH  064%=      5-min Rain = 0
KLD1 131115Z 27009KT 04/M03 A2996 RMK A01 T00391026  RH  063%=      5-min Rain = 0
KLD1 131120Z 27009KT 04/M03 A2996 RMK A01 T00381026  RH  063%=      5-min Rain = 0
KLD1 131125Z 27010KT 04/M03 A2996 RMK A01 T00371026  RH  064%=      5-min Rain = 0
KLD1 131130Z 28009KT 04/M02 A2996 RMK A01 T00401024  RH  064%=      5-min Rain = 0
KLD1 131135Z 29009KT 05/M02 A2996 RMK A01 T00461021  RH  062%=      5-min Rain = 0
KLD1 131140Z 29009KT 05/M02 A2996 RMK A01 T00461021  RH  062%=      5-min Rain = 0
KLD1 131145Z 29009KT 05/M02 A2995 RMK A01 T00501019  RH  062%=      5-min Rain = 0
KLD1 131150Z 29010KT 06/M02 A2995 RMK A01 T00571018  RH  059%=      5-min Rain = 0
KLD1 131155Z 28011KT 06/M02 A2995 RMK A01 T00621019  RH  057%=      5-min Rain = 0
KLD1 131200Z 28012KT 07/M02 A2994 RMK A01 T00651019  RH  055%=      5-min Rain = 0
KLD1 131205Z 28012KT 07/M02 A2995 RMK A01 T00651020  RH  055%=      5-min Rain = 0
KLD1 131210Z 28012KT 06/M02 A2995 RMK A01 T00611021  RH  056%=      5-min Rain = 0
KLD1 131215Z 29012KT 06/M02 A2995 RMK A01 T00601021  RH  057%=      5-min Rain = 0
KLD1 131220Z 28012KT 06/M02 A2995 RMK A01 T00601021  RH  057%=      5-min Rain = 0
KLD1 131225Z 29012KT 06/M02 A2995 RMK A01 T00601021  RH  057%=      5-min Rain = 0
KLD1 131230Z 29012KT 06/M02 A2995 RMK A01 T00601021  RH  057%=      5-min Rain = 0
KLD1 131235Z 29011KT 06/M02 A2996 RMK A01 T00601021  RH  057%=      5-min Rain = 0
KLD1 131240Z 29011KT 06/M02 A2996 RMK A01 T00591021  RH  057%=      5-min Rain = 0
KLD1 131245Z 29011KT 06/M02 A2996 RMK A01 T00591021  RH  057%=      5-min Rain = 0
KLD1 131250Z 29010KT 06/M02 A2996 RMK A01 T00591020  RH  057%=      5-min Rain = 0
KLD1 131255Z 29010KT 06/M02 A2996 RMK A01 T00591021  RH  057%=      5-min Rain = 0
KLD1 131300Z 28010KT 06/M02 A2996 RMK A01 T00581021  RH  057%=      5-min Rain = 0
KLD1 131305Z 28009KT 06/M02 A2995 RMK A01 T00561021  RH  058%=      5-min Rain = 0
KLD1 131310Z 28009KT 06/M02 A2995 RMK A01 T00551021  RH  058%=      5-min Rain = 0
KLD1 131315Z 28009KT 05/M02 A2995 RMK A01 T00531021  RH  059%=      5-min Rain = 0
KLD1 131320Z 29008KT 05/M02 A2995 RMK A01 T00501023  RH  060%=      5-min Rain = 0
KLD1 131325Z 29008KT 05/M02 A2996 RMK A01 T00461023  RH  061%=      5-min Rain = 0
KLD1 131330Z 29007KT 04/M02 A2996 RMK A01 T00441023  RH  062%=      5-min Rain = 0
KLD1 131335Z 30007KT 04/M02 A2997 RMK A01 T00411024  RH  063%=      5-min Rain = 0
KLD1 131340Z 30007KT 04/M03 A2996 RMK A01 T00371025  RH  064%=      5-min Rain = 0
KLD1 131345Z 30008KT 04/M02 A2997 RMK A01 T00361024  RH  065%=      5-min Rain = 0
KLD1 131350Z 31008KT 04/M02 A2997 RMK A01 T00361023  RH  066%=      5-min Rain = 0
KLD1 131355Z 31008KT 04/M02 A2997 RMK A01 T00391020  RH  066%=      5-min Rain = 0
KLD1 131400Z 31008KT 05/M02 A2996 RMK A01 T00481017  RH  063%=      5-min Rain = 0
KLD1 131405Z 31009KT 06/M02 A2997 RMK A01 T00561016  RH  060%=      5-min Rain = 0
KLD1 131410Z 31009KT 06/M02 A2997 RMK A01 T00591016  RH  059%=      5-min Rain = 0
KLD1 131415Z 30008KT 06/M02 A2997 RMK A01 T00631015  RH  058%=      5-min Rain = 0
KLD1 131420Z 30008KT 07/M01 A2997 RMK A01 T00651014  RH  058%=      5-min Rain = 0
KLD1 131425Z 30009KT 07/M01 A2997 RMK A01 T00721011  RH  056%=      5-min Rain = 0
KLD1 131430Z 30011KT 08/M01 A2997 RMK A01 T00801010  RH  053%=      5-min Rain = 0
KLD1 131435Z 29012KT 09/M01 A2998 RMK A01 T00851009  RH  052%=      5-min Rain = 0
KLD1 131440Z 29012KT 09/M01 A2998 RMK A01 T00901009  RH  050%=      5-min Rain = 0
KLD1 131445Z 29013G19KT 10/M01 A2998 RMK A01 T00951008  RH  049%=      5-min Rain = 0
KLD1 131450Z 29014KT 10/M01 A2998 RMK A01 T00991008  RH  048%=      5-min Rain = 0
KLD1 131455Z 28013KT 10/M01 A2998 RMK A01 T01021007  RH  047%=      5-min Rain = 0
KLD1 131500Z 29013KT 11/M01 A2997 RMK A01 T01061006  RH  046%=      5-min Rain = 0
KLD1 131505Z 29015G21KT 12/M00 A2997 RMK A01 T01151004  RH  044%=      5-min Rain = 0
KLD1 131510Z 29018G28KT 12/M00 A2997 RMK A01 T01231004  RH  042%=      5-min Rain = 0
KLD1 131515Z 29020G26KT 13/M00 A2997 RMK A01 T01281004  RH  041%=      5-min Rain = 0
KLD1 131520Z 29020G27KT 13/M00 A2998 RMK A01 T01311004  RH  040%=      5-min Rain = 0
KLD1 131525Z 29021G26KT 13/M01 A2998 RMK A01 T01331005  RH  039%=      5-min Rain = 0
KLD1 131530Z 29018KT 14/M00 A2998 RMK A01 T01361004  RH  039%=      5-min Rain = 0
KLD1 131535Z 28020G26KT 14/M00 A2997 RMK A01 T01391004  RH  038%=      5-min Rain = 0
KLD1 131540Z 29021G26KT 14/M00 A2997 RMK A01 T01411004  RH  037%=      5-min Rain = 0
KLD1 131545Z 29019G25KT 14/M00 A2997 RMK A01 T01431004  RH  037%=      5-min Rain = 0
KLD1 131550Z 29021G29KT 15/M00 A2997 RMK A01 T01451004  RH  036%=      5-min Rain = 0
KLD1 131555Z 29019G24KT 15/M00 A2997 RMK A01 T01471003  RH  036%=      5-min Rain = 0
KLD1 131600Z 29018G27KT 15/M00 A2997 RMK A01 T01501003  RH  036%=      5-min Rain = 0
KLD1 131605Z 29020G25KT 15/M00 A2997 RMK A01 T01531004  RH  035%=      5-min Rain = 0
KLD1 131610Z 29020G28KT 16/M00 A2998 RMK A01 T01561004  RH  034%=      5-min Rain = 0
KLD1 131615Z 29020G25KT 16/M00 A2997 RMK A01 T01571004  RH  034%=      5-min Rain = 0
KLD1 131620Z 29018G24KT 16/M00 A2997 RMK A01 T01591003  RH  033%=      5-min Rain = 0
KLD1 131625Z 29020G27KT 16/M00 A2997 RMK A01 T01621003  RH  033%=      5-min Rain = 0
KLD1 131630Z 29022G29KT 16/M00 A2998 RMK A01 T01641004  RH  032%=      5-min Rain = 0
KLD1 131635Z 29022G28KT 17/M00 A2997 RMK A01 T01651004  RH  032%=      5-min Rain = 0
KLD1 131640Z 29023G30KT 17/M00 A2997 RMK A01 T01671004  RH  031%=      5-min Rain = 0
KLD1 131645Z 30023G29KT 17/M01 A2997 RMK A01 T01681005  RH  031%=      5-min Rain = 0
KLD1 131650Z 29023G31KT 17/M00 A2998 RMK A01 T01701004  RH  031%=      5-min Rain = 0
KLD1 131655Z 30021G27KT 17/M00 A2998 RMK A01 T01731003  RH  031%=      5-min Rain = 0
KLD1 131700Z 29025G32KT 17/M01 A2998 RMK A01 T01741005  RH  030%=      5-min Rain = 0
KLD1 131705Z 29026G35KT 17/M01 A2997 RMK A01 T01741005  RH  030%=      5-min Rain = 0
KLD1 131710Z 30026G35KT 18/M01 A2998 RMK A01 T01751005  RH  030%=      5-min Rain = 0
KLD1 131715Z 29024G31KT 18/M01 A2998 RMK A01 T01761006  RH  029%=      5-min Rain = 0
KLD1 131720Z 30025G34KT 18/M01 A2997 RMK A01 T01781006  RH  029%=      5-min Rain = 0
KLD1 131725Z 29027G33KT 18/M01 A2997 RMK A01 T01781007  RH  029%=      5-min Rain = 0
KLD1 131730Z 29023G31KT 18/M01 A2997 RMK A01 T01801006  RH  029%=      5-min Rain = 0
KLD1 131735Z 29025G33KT 18/M01 A2997 RMK A01 T01811006  RH  029%=      5-min Rain = 0
KLD1 131740Z 30025G31KT 18/M01 A2997 RMK A01 T01811006  RH  028%=      5-min Rain = 0
KLD1 131745Z 29025G30KT 18/M01 A2996 RMK A01 T01831006  RH  028%=      5-min Rain = 0
KLD1 131750Z 29026G33KT 18/M01 A2996 RMK A01 T01791008  RH  028%=      5-min Rain = 0
KLD1 131755Z 29025G31KT 18/M01 A2995 RMK A01 T01801007  RH  028%=      5-min Rain = 0
KLD1 131800Z 29025G33KT 18/M01 A2995 RMK A01 T01841007  RH  028%=      5-min Rain = 0
KLD1 131805Z 29027G35KT 18/M01 A2995 RMK A01 T01831008  RH  028%=      5-min Rain = 0
KLD1 131810Z 29028G36KT 18/M01 A2996 RMK A01 T01841008  RH  028%=      5-min Rain = 0
KLD1 131815Z 29025G32KT 18/M01 A2996 RMK A01 T01831008  RH  028%=      5-min Rain = 0
KLD1 131820Z 30027G36KT 18/M01 A2996 RMK A01 T01821008  RH  028%=      5-min Rain = 0
KLD1 131825Z 29028G36KT 19/M01 A2996 RMK A01 T01851008  RH  027%=      5-min Rain = 0
KLD1 131830Z 30026G32KT 19/M01 A2996 RMK A01 T01871007  RH  027%=      5-min Rain = 0
KLD1 131835Z 31025G33KT 19/M01 A2995 RMK A01 T01871007  RH  027%=      5-min Rain = 0
KLD1 131840Z 31025G31KT 19/M01 A2994 RMK A01 T01861007  RH  027%=      5-min Rain = 0
KLD1 131845Z 30023G29KT 19/M01 A2993 RMK A01 T01891006  RH  027%=      5-min Rain = 0
KLD1 131850Z 30022G33KT 19/M01 A2993 RMK A01 T01931005  RH  027%=      5-min Rain = 0
KLD1 131855Z 31027G34KT 19/M01 A2993 RMK A01 T01921007  RH  026%=      5-min Rain = 0
KLD1 131900Z 30024G31KT 19/M01 A2993 RMK A01 T01891008  RH  027%=      5-min Rain = 0
KLD1 131905Z 31025G35KT 19/M01 A2992 RMK A01 T01901009  RH  026%=      5-min Rain = 0
KLD1 131910Z 31024G33KT 19/M01 A2992 RMK A01 T01891010  RH  026%=      5-min Rain = 0
KLD1 131915Z 31025G34KT 19/M01 A2991 RMK A01 T01891009  RH  026%=      5-min Rain = 0
KLD1 131920Z 30024G31KT 19/M01 A2991 RMK A01 T01931009  RH  026%=      5-min Rain = 0
KLD1 131925Z 31025G32KT 19/M01 A2991 RMK A01 T01931009  RH  026%=      5-min Rain = 0
KLD1 131930Z 30026G32KT 19/M01 A2991 RMK A01 T01931010  RH  026%=      5-min Rain = 0
KLD1 131935Z 30024G30KT 20/M01 A2991 RMK A01 T01951010  RH  025%=      5-min Rain = 0
KLD1 131940Z 31023G32KT 20/M01 A2991 RMK A01 T01961009  RH  025%=      5-min Rain = 0
KLD1 131945Z 31022G29KT 20/M01 A299 RMK A01 T01971011  RH  025%=      5-min Rain = 0
KLD1 131950Z 31025G31KT 20/M01 A299 RMK A01 T01961012  RH  025%=      5-min Rain = 0
KLD1 131955Z 31025G32KT 20/M01 A2989 RMK A01 T01961014  RH  024%=      5-min Rain = 0
KLD1 132000Z 31023G30KT 20/M01 A2989 RMK A01 T01961013  RH  025%=      5-min Rain = 0
KLD1 132005Z 31024G30KT 19/M02 A2989 RMK A01 T01941015  RH  025%=      5-min Rain = 0
KLD1 132010Z 31024G31KT 19/M02 A2989 RMK A01 T01911015  RH  025%=      5-min Rain = 0
KLD1 132015Z 31021G26KT 19/M01 A2989 RMK A01 T01921013  RH  025%=      5-min Rain = 0
KLD1 132020Z 32022G27KT 19/M01 A2989 RMK A01 T01941014  RH  025%=      5-min Rain = 0
KLD1 132025Z 32019G24KT 20/M01 A2989 RMK A01 T01961014  RH  024%=      5-min Rain = 0
KLD1 132030Z 32019G25KT 20/M01 A2989 RMK A01 T02001014  RH  024%=      5-min Rain = 0
KLD1 132035Z 30022G28KT 20/M02 A2988 RMK A01 T02041021  RH  022%=      5-min Rain = 0
KLD1 132040Z 31019G29KT 21/M02 A2988 RMK A01 T02061018  RH  022%=      5-min Rain = 0
KLD1 132045Z 30024G33KT 21/M03 A2988 RMK A01 T02061028  RH  021%=      5-min Rain = 0
KLD1 132050Z 31025G33KT 21/M03 A2988 RMK A01 T02061030  RH  020%=      5-min Rain = 0
KLD1 132055Z 31025G31KT 21/M03 A2988 RMK A01 T02061030  RH  020%=      5-min Rain = 0
KLD1 132100Z 31023G29KT 21/M03 A2988 RMK A01 T02071031  RH  020%=      5-min Rain = 0
KLD1 132105Z 31026G33KT 21/M03 A2988 RMK A01 T02081034  RH  019%=      5-min Rain = 0
KLD1 132110Z 30024G32KT 21/M04 A2988 RMK A01 T02081040  RH  019%=      5-min Rain = 0
KLD1 132115Z 30023G32KT 21/M04 A2988 RMK A01 T02081040  RH  019%=      5-min Rain = 0
KLD1 132120Z 30024G33KT 21/M04 A2988 RMK A01 T02061039  RH  019%=      5-min Rain = 0
KLD1 132125Z 31022G27KT 21/M04 A2988 RMK A01 T02051037  RH  019%=      5-min Rain = 0
KLD1 132130Z 30023G28KT 20/M04 A2988 RMK A01 T02041035  RH  020%=      5-min Rain = 0
KLD1 132135Z 30023G28KT 20/M04 A2988 RMK A01 T02041038  RH  019%=      5-min Rain = 0
KLD1 132140Z 30022G29KT 20/M04 A2988 RMK A01 T02001040  RH  020%=      5-min Rain = 0
KLD1 132145Z 30023G33KT 20/M04 A2988 RMK A01 T02021039  RH  019%=      5-min Rain = 0
KLD1 132150Z 29022G28KT 20/M04 A2988 RMK A01 T02021043  RH  019%=      5-min Rain = 0
KLD1 132155Z 31020G27KT 20/M04 A2988 RMK A01 T02031040  RH  019%=      5-min Rain = 0
KLD1 132200Z 30022G30KT 20/M04 A2988 RMK A01 T02041043  RH  019%=      5-min Rain = 0
KLD1 132205Z 30021G34KT 20/M04 A2988 RMK A01 T02041040  RH  019%=      5-min Rain = 0
KLD1 132210Z 30021G29KT 20/M04 A2988 RMK A01 T02031041  RH  019%=      5-min Rain = 0
KLD1 132215Z 30021G28KT 20/M04 A2988 RMK A01 T02021040  RH  019%=      5-min Rain = 0
KLD1 132220Z 29023G29KT 20/M04 A2989 RMK A01 T02011043  RH  019%=      5-min Rain = 0
KLD1 132225Z 30021G27KT 20/M05 A2989 RMK A01 T02001046  RH  019%=      5-min Rain = 0
KLD1 132230Z 30021G27KT 20/M05 A2989 RMK A01 T02001047  RH  019%=      5-min Rain = 0
KLD1 132235Z 30021G28KT 20/M05 A2989 RMK A01 T01991049  RH  018%=      5-min Rain = 0
KLD1 132240Z 29026G32KT 20/M05 A2989 RMK A01 T01991051  RH  018%=      5-min Rain = 0
KLD1 132245Z 30025G33KT 20/M05 A2989 RMK A01 T01981051  RH  018%=      5-min Rain = 0
KLD1 132250Z 30019G24KT 20/M05 A2989 RMK A01 T01961049  RH  019%=      5-min Rain = 0
KLD1 132255Z 30018G25KT 19/M05 A2989 RMK A01 T01941050  RH  019%=      5-min Rain = 0
KLD1 132300Z 30018G24KT 19/M05 A2989 RMK A01 T01921049  RH  019%=      5-min Rain = 0
KLD1 132305Z 30017G22KT 19/M05 A2988 RMK A01 T01901049  RH  019%=      5-min Rain = 0
KLD1 132310Z 30018G24KT 19/M05 A2988 RMK A01 T01891048  RH  020%=      5-min Rain = 0
KLD1 132315Z 29017G23KT 19/M05 A2989 RMK A01 T01871047  RH  020%=      5-min Rain = 0
KLD1 132320Z 29017G24KT 19/M05 A2989 RMK A01 T01851047  RH  020%=      5-min Rain = 0
KLD1 132325Z 29016KT 18/M05 A2989 RMK A01 T01821046  RH  021%=      5-min Rain = 0
KLD1 132330Z 29016KT 18/M05 A2989 RMK A01 T01781045  RH  021%=      5-min Rain = 0
KLD1 132335Z 29017KT 18/M05 A299 RMK A01 T01761046  RH  022%=      5-min Rain = 0
KLD1 132340Z 29017G23KT 17/M05 A299 RMK A01 T01741047  RH  022%=      5-min Rain = 0
KLD1 132345Z 29016G21KT 17/M05 A299 RMK A01 T01721047  RH  022%=      5-min Rain = 0
KLD1 132350Z 29015KT 17/M05 A299 RMK A01 T01681047  RH  023%=      5-min Rain = 0
KLD1 132355Z 29014G19KT 17/M05 A299 RMK A01 T01651047  RH  023%=      5-min Rain = 0
KLD1 140000Z 28012KT 16/M05 A299 RMK A01 T01591047  RH  024%=      5-min Rain = 0
KLD1 140005Z 29011KT 16/M05 A299 RMK A01 T01551046  RH  025%=      5-min Rain = 0
KLD1 140010Z 29011KT 15/M05 A299 RMK A01 T01521045  RH  026%=      5-min Rain = 0
KLD1 140015Z 28013KT 15/M04 A2989 RMK A01 T01531042  RH  026%=      5-min Rain = 0
KLD1 140020Z 29013KT 15/M04 A299 RMK A01 T01541041  RH  026%=      5-min Rain = 0
KLD1 140025Z 29014KT 15/M04 A299 RMK A01 T01531040  RH  026%=      5-min Rain = 0
KLD1 140030Z 29015KT 15/M04 A299 RMK A01 T01541040  RH  026%=      5-min Rain = 0
KLD1 140035Z 29014KT 15/M04 A299 RMK A01 T01541040  RH  026%=      5-min Rain = 0
KLD1 140040Z 29015KT 15/M04 A299 RMK A01 T01541040  RH  026%=      5-min Rain = 0
KLD1 140045Z 29014KT 15/M04 A299 RMK A01 T01521041  RH  026%=      5-min Rain = 0
KLD1 140050Z 29013G18KT 15/M04 A2991 RMK A01 T01511041  RH  026%=      5-min Rain = 0
KLD1 140055Z 29013G18KT 15/M04 A2991 RMK A01 T01491040  RH  027%=      5-min Rain = 0
KLD1 140100Z 29014KT 15/M04 A2991 RMK A01 T01471040  RH  027%=      5-min Rain = 0
KLD1 140105Z 29014KT 15/M04 A2991 RMK A01 T01471040  RH  027%=      5-min Rain = 0
KLD1 140110Z 29013KT 14/M04 A2992 RMK A01 T01441040  RH  028%=      5-min Rain = 0
KLD1 140115Z 28012KT 14/M04 A2992 RMK A01 T01411040  RH  028%=      5-min Rain = 0
KLD1 140120Z 28010KT 14/M04 A2992 RMK A01 T01361040  RH  029%=      5-min Rain = 0
KLD1 140125Z 29011KT 13/M04 A2992 RMK A01 T01321040  RH  030%=      5-min Rain = 0
KLD1 140130Z 28011KT 13/M04 A2993 RMK A01 T01281039  RH  031%=      5-min Rain = 0
KLD1 140135Z 28011KT 13/M04 A2993 RMK A01 T01261039  RH  032%=      5-min Rain = 0
KLD1 140140Z 28011KT 13/M04 A2993 RMK A01 T01251038  RH  032%=      5-min Rain = 0
KLD1 140145Z 28011KT 12/M04 A2993 RMK A01 T01231038  RH  032%=      5-min Rain = 0
KLD1 140150Z 28013KT 12/M04 A2994 RMK A01 T01231037  RH  033%=      5-min Rain = 0
KLD1 140155Z 28013KT 12/M04 A2994 RMK A01 T01241036  RH  033%=      5-min Rain = 0
KLD1 140200Z 28012KT 12/M04 A2994 RMK A01 T01231035  RH  033%=      5-min Rain = 0
KLD1 140205Z 28012KT 12/M03 A2994 RMK A01 T01241034  RH  033%=      5-min Rain = 0
KLD1 140210Z 28012KT 12/M03 A2995 RMK A01 T01231033  RH  034%=      5-min Rain = 0
KLD1 140215Z 28012KT 12/M03 A2995 RMK A01 T01211033  RH  034%=      5-min Rain = 0
KLD1 140220Z 28010KT 12/M03 A2995 RMK A01 T01181033  RH  035%=      5-min Rain = 0
KLD1 140225Z 29009KT 12/M03 A2994 RMK A01 T01151032  RH  036%=      5-min Rain = 0
KLD1 140230Z 29010KT 11/M03 A2994 RMK A01 T01131032  RH  036%=      5-min Rain = 0
KLD1 140235Z 29010KT 11/M03 A2994 RMK A01 T01131031  RH  037%=      5-min Rain = 0
KLD1 140240Z 29011KT 11/M03 A2994 RMK A01 T01141030  RH  037%=      5-min Rain = 0
KLD1 140245Z 29010KT 11/M03 A2994 RMK A01 T01141030  RH  037%=      5-min Rain = 0
KLD1 140250Z 29011KT 11/M03 A2995 RMK A01 T01131030  RH  037%=      5-min Rain = 0
KLD1 140255Z 29011KT 11/M03 A2994 RMK A01 T01131030  RH  037%=      5-min Rain = 0
KLD1 140300Z 29012KT 11/M03 A2994 RMK A01 T01131030  RH  037%=      5-min Rain = 0
KLD1 140305Z 29012KT 11/M03 A2994 RMK A01 T01131030  RH  037%=      5-min Rain = 0
KLD1 140310Z 29011KT 11/M03 A2994 RMK A01 T01111030  RH  037%=      5-min Rain = 0
KLD1 140315Z 29011KT 11/M03 A2994 RMK A01 T01091030  RH  038%=      5-min Rain = 0
KLD1 140320Z 29011KT 11/M03 A2994 RMK A01 T01071030  RH  038%=      5-min Rain = 0
KLD1 140325Z 28011KT 11/M03 A2994 RMK A01 T01051030  RH  039%=      5-min Rain = 0
KLD1 140330Z 28010KT 10/M03 A2994 RMK A01 T01041030  RH  039%=      5-min Rain = 0
KLD1 140335Z 29011KT 10/M03 A2994 RMK A01 T01021030  RH  040%=      5-min Rain = 0
KLD1 140340Z 29012KT 10/M03 A2994 RMK A01 T01001030  RH  040%=      5-min Rain = 0
KLD1 140345Z 29012KT 10/M03 A2994 RMK A01 T01041030  RH  039%=      5-min Rain = 0
KLD1 140350Z 30011KT 10/M03 A2994 RMK A01 T01031031  RH  039%=      5-min Rain = 0
KLD1 140355Z 30010KT 10/M03 A2993 RMK A01 T01001031  RH  040%=      5-min Rain = 0
KLD1 140400Z 31011KT 10/M03 A2993 RMK A01 T00971031  RH  041%=      5-min Rain = 0
KLD1 140405Z 31011KT 10/M03 A2993 RMK A01 T00951031  RH  041%=      5-min Rain = 0
KLD1 140410Z 31010KT 09/M03 A2992 RMK A01 T00921031  RH  042%=      5-min Rain = 0
KLD1 140415Z 32009KT 09/M03 A2993 RMK A01 T00891031  RH  043%=      5-min Rain = 0
KLD1 140420Z 31009KT 09/M03 A2993 RMK A01 T00871031  RH  043%=      5-min Rain = 0
KLD1 140425Z 30008KT 09/M03 A2993 RMK A01 T00851032  RH  044%=      5-min Rain = 0
KLD1 140430Z 29008KT 08/M03 A2993 RMK A01 T00841031  RH  045%=      5-min Rain = 0
KLD1 140435Z 28007KT 08/M03 A2993 RMK A01 T00811032  RH  045%=      5-min Rain = 0
KLD1 140440Z 28008KT 08/M03 A2994 RMK A01 T00781032  RH  046%=      5-min Rain = 0
KLD1 140445Z 28008KT 07/M03 A2994 RMK A01 T00741032  RH  047%=      5-min Rain = 0
KLD1 140450Z 28007KT 07/M03 A2993 RMK A01 T00731031  RH  048%=      5-min Rain = 0
KLD1 140455Z 28007KT 07/M03 A2993 RMK A01 T00681033  RH  049%=      5-min Rain = 0
KLD1 140500Z 28006KT 06/M03 A2993 RMK A01 T00641033  RH  050%=      5-min Rain = 0
KLD1 140505Z 29007KT 06/M03 A2993 RMK A01 T00591034  RH  051%=      5-min Rain = 0
KLD1 140510Z 29008KT 05/M04 A2993 RMK A01 T00531036  RH  053%=      5-min Rain = 0
KLD1 140515Z 29008KT 05/M04 A2993 RMK A01 T00511035  RH  054%=      5-min Rain = 0
KLD1 140520Z 28007KT 05/M03 A2994 RMK A01 T00531034  RH  054%=      5-min Rain = 0
KLD1 140525Z 28006KT 05/M03 A2994 RMK A01 T00531034  RH  054%=      5-min Rain = 0
KLD1 140530Z 28006KT 05/M03 A2994 RMK A01 T00521034  RH  054%=      5-min Rain = 0
KLD1 140535Z 28007KT 05/M03 A2994 RMK A01 T00521034  RH  054%=      5-min Rain = 0
KLD1 140540Z 28007KT 05/M04 A2994 RMK A01 T00501035  RH  054%=      5-min Rain = 0
KLD1 140545Z 29006KT 05/M03 A2994 RMK A01 T00491034  RH  055%=      5-min Rain = 0
KLD1 140550Z 29006KT 05/M04 A2994 RMK A01 T00481035  RH  055%=      5-min Rain = 0
KLD1 140555Z 31006KT 05/M04 A2993 RMK A01 T00451036  RH  056%=      5-min Rain = 0

Page generated in 0.0168 seconds.